ADDS METAR Data INFO
IDs: Format: Raw Decoded Include TAF

Data at: 2219 UTC 24 Jun 2018

METAR for:KCTY (Cross City Arpt, FL, US)
Text:KCTY 242215Z AUTO 18005KT 10SM SCT050 BKN065 BKN080 30/25 A2998 RMK AO2 LTG DSNT E AND SE T03000253
Temperature: 30.0°C ( 86°F)
Dewpoint: 25.3°C ( 78°F) [RH = 76%]
Pressure (altimeter):29.98 inches Hg (1015.3 mb)
Winds:from the S (180 degrees) at 6 MPH (5 knots; 2.6 m/s)
Visibility:10 or more sm (16+ km)
Ceiling:6500 feet AGL
Clouds: scattered clouds at 5000 feet AGL, broken clouds at 6500 feet AGL, broken clouds at 8000 feet AGL
QC Flag:automated observation with no human augmentation